createdAt,value
2023-03-06T00:00:50.602Z,236.66
2023-03-06T00:01:50.628Z,234.76
2023-03-06T00:02:52.138Z,234.76
2023-03-06T00:03:50.727Z,235.75
2023-03-06T00:04:50.728Z,232.12
2023-03-06T00:05:50.823Z,236.29
2023-03-06T00:06:50.794Z,231.15
2023-03-06T00:07:50.846Z,233.36
2023-03-06T00:08:50.882Z,233.49
2023-03-06T00:09:50.926Z,234.01
2023-03-06T00:10:50.966Z,234.95
2023-03-06T00:11:51.045Z,234.11
2023-03-06T00:12:51.072Z,236.17
2023-03-06T00:13:51.115Z,236.89
2023-03-06T00:14:51.168Z,231.48
2023-03-06T00:15:51.256Z,231.41
2023-03-06T00:16:51.283Z,232.47
2023-03-06T00:17:51.311Z,229.35
2023-03-06T00:18:51.337Z,230.10
2023-03-06T00:19:51.425Z,230.41
2023-03-06T00:20:51.487Z,229.17
2023-03-06T00:21:51.520Z,235.04
2023-03-06T00:22:51.560Z,233.55
2023-03-06T00:23:51.592Z,238.69
2023-03-06T00:24:51.666Z,238.18
2023-03-06T00:25:51.667Z,239.46
2023-03-06T00:26:51.722Z,239.36
2023-03-06T00:27:51.743Z,240.85
2023-03-06T00:28:51.800Z,241.54
2023-03-06T00:29:51.814Z,239.71
2023-03-06T00:30:51.887Z,242.25
2023-03-06T00:31:51.894Z,241.97
2023-03-06T00:32:51.929Z,244.14
2023-03-06T00:33:51.976Z,242.43
2023-03-06T00:34:52.045Z,243.99
2023-03-06T00:35:52.099Z,240.64
2023-03-06T00:36:52.053Z,237.37
2023-03-06T00:37:52.108Z,239.74
2023-03-06T00:38:52.159Z,241.66
2023-03-06T00:39:52.221Z,240.81
2023-03-06T00:40:52.183Z,240.33
2023-03-06T00:41:52.211Z,237.71
2023-03-06T00:42:52.297Z,239.92
2023-03-06T00:43:52.311Z,240.18
2023-03-06T00:44:52.393Z,240.80
2023-03-06T00:45:52.376Z,241.07
2023-03-06T00:46:52.373Z,243.97
2023-03-06T00:47:52.414Z,242.56
2023-03-06T00:48:52.436Z,241.44
2023-03-06T00:49:52.451Z,242.70
2023-03-06T00:50:52.465Z,244.69
2023-03-06T00:51:52.492Z,243.99
2023-03-06T00:52:52.501Z,241.64
2023-03-06T00:53:52.494Z,237.18
2023-03-06T00:54:52.569Z,239.85
2023-03-06T00:55:52.548Z,240.65
2023-03-06T00:56:52.586Z,242.20
2023-03-06T00:57:52.606Z,242.01
2023-03-06T00:58:52.609Z,240.25
2023-03-06T00:59:52.621Z,243.21
2023-03-06T01:00:52.664Z,241.41
2023-03-06T01:01:52.789Z,244.18
2023-03-06T01:02:52.759Z,243.75
2023-03-06T01:03:52.802Z,242.43
2023-03-06T01:04:52.864Z,244.35
2023-03-06T01:05:52.851Z,245.02
2023-03-06T01:06:52.866Z,242.66
2023-03-06T01:07:52.930Z,241.43
2023-03-06T01:08:52.927Z,242.75
2023-03-06T01:09:52.961Z,241.12
2023-03-06T01:10:53.001Z,243.61
2023-03-06T01:12:53.077Z,244.78
2023-03-06T01:13:53.087Z,241.02
2023-03-06T01:14:53.126Z,244.73
2023-03-06T01:15:53.192Z,244.78
2023-03-06T01:18:53.344Z,240.98
2023-03-06T01:19:53.393Z,241.28
2023-03-06T01:22:53.512Z,237.83
2023-03-06T01:23:53.614Z,241.85
2023-03-06T01:24:53.644Z,240.76
2023-03-06T01:25:53.687Z,237.27
2023-03-06T01:26:53.748Z,239.02
2023-03-06T01:27:53.804Z,239.16
2023-03-06T01:28:53.851Z,237.77
2023-03-06T01:29:53.975Z,233.05
2023-03-06T01:30:54.021Z,234.73
2023-03-06T03:08:57.850Z,196.60
2023-03-06T03:09:57.871Z,176.21
2023-03-06T03:10:57.889Z,172.23
2023-03-06T03:11:57.950Z,170.27
2023-03-06T03:12:58.001Z,169.02
2023-03-06T03:13:58.047Z,170.36
2023-03-06T03:14:58.058Z,164.11
2023-03-06T03:15:58.143Z,166.88
2023-03-06T03:16:58.161Z,166.36
2023-03-06T03:17:58.210Z,167.89
2023-03-06T03:18:58.255Z,166.04
2023-03-06T03:19:58.309Z,167.10
2023-03-06T03:20:58.354Z,171.89
2023-03-06T03:21:58.420Z,180.99
2023-03-06T03:22:58.483Z,207.48
2023-03-06T03:23:58.511Z,210.74
2023-03-06T03:24:58.542Z,206.33
2023-03-06T03:25:58.592Z,202.38
2023-03-06T03:26:58.643Z,189.13
2023-03-06T03:27:58.649Z,186.36
2023-03-06T03:28:58.709Z,187.31
2023-03-06T03:29:58.783Z,183.07
2023-03-06T03:30:58.803Z,178.83
2023-03-06T03:31:58.853Z,184.11
2023-03-06T03:32:58.888Z,182.32
2023-03-06T03:33:58.957Z,185.07
2023-03-06T03:34:58.973Z,183.68
2023-03-06T03:35:59.000Z,183.32
2023-03-06T03:36:59.099Z,186.02
2023-03-06T03:37:59.104Z,180.49
2023-03-06T03:38:59.173Z,179.88
2023-03-06T03:39:59.208Z,180.43
2023-03-06T03:40:59.253Z,179.61
2023-03-06T03:41:59.328Z,175.76
2023-03-06T03:42:59.344Z,179.68
2023-03-06T03:43:59.408Z,191.08
2023-03-06T03:44:59.429Z,188.45
2023-03-06T03:45:59.502Z,187.98
2023-03-06T03:46:59.532Z,184.38
2023-03-06T03:47:59.550Z,192.80
2023-03-06T03:48:59.619Z,189.81
2023-03-06T03:49:59.683Z,186.68
2023-03-06T03:50:59.696Z,191.02
2023-03-06T03:51:59.770Z,190.80
2023-03-06T03:52:59.777Z,193.68
2023-03-06T03:53:59.815Z,198.44
2023-03-06T03:54:59.869Z,211.86
2023-03-06T03:55:59.905Z,225.15
2023-03-06T03:56:59.919Z,223.38
2023-03-06T03:57:59.974Z,210.82
2023-03-06T03:58:59.982Z,206.40
2023-03-06T04:00:00.042Z,208.04
2023-03-06T04:01:00.083Z,186.78
2023-03-06T04:02:00.185Z,180.41
2023-03-06T04:03:00.146Z,176.76
2023-03-06T04:04:00.171Z,174.96
2023-03-06T04:05:00.251Z,172.43
2023-03-06T04:06:00.241Z,173.60
2023-03-06T04:07:00.317Z,177.96
2023-03-06T04:08:00.353Z,177.90
2023-03-06T04:09:00.413Z,173.75
2023-03-06T04:10:00.452Z,177.55
2023-03-06T04:11:00.497Z,173.15
2023-03-06T04:12:00.559Z,173.39
2023-03-06T04:13:00.569Z,170.64
2023-03-06T04:14:00.624Z,171.26
2023-03-06T04:15:00.678Z,172.36
2023-03-06T04:16:00.777Z,167.50
2023-03-06T04:17:00.755Z,163.35
2023-03-06T04:18:00.815Z,164.43
2023-03-06T04:19:00.843Z,165.15
2023-03-06T04:20:00.913Z,164.92
2023-03-06T04:21:00.948Z,163.80
2023-03-06T04:22:01.016Z,170.64
2023-03-06T04:23:01.043Z,179.55
2023-03-06T04:24:01.115Z,201.07
2023-03-06T04:25:01.114Z,215.46
2023-03-06T04:26:01.162Z,219.92
2023-03-06T04:27:01.215Z,228.25
2023-03-06T04:28:01.265Z,219.52
2023-03-06T04:29:01.249Z,194.10
2023-03-06T04:30:01.354Z,189.23
2023-03-06T04:31:01.374Z,187.11
2023-03-06T04:32:01.421Z,182.43
2023-03-06T04:33:01.460Z,179.08
2023-03-06T04:34:01.487Z,175.22
2023-03-06T04:35:01.615Z,175.12
2023-03-06T04:36:01.587Z,175.74
2023-03-06T04:37:01.602Z,186.58
2023-03-06T04:38:01.622Z,188.48
2023-03-06T04:39:01.712Z,195.11
2023-03-06T04:40:01.768Z,205.64
2023-03-06T04:41:01.765Z,195.21
2023-03-06T04:42:01.795Z,187.80
2023-03-06T04:43:01.815Z,177.11
2023-03-06T04:44:01.882Z,177.12
2023-03-06T04:45:01.933Z,181.62
2023-03-06T04:46:02.052Z,169.71
2023-03-06T04:47:01.989Z,163.82
2023-03-06T04:48:02.062Z,168.57
2023-03-06T04:49:02.108Z,171.07
2023-03-06T04:50:02.171Z,170.70
2023-03-06T04:51:02.204Z,177.00
2023-03-06T04:52:02.277Z,181.43
2023-03-06T04:53:02.305Z,192.66
2023-03-06T04:54:02.334Z,196.17
2023-03-06T04:55:02.426Z,185.31
2023-03-06T04:56:02.443Z,185.41
2023-03-06T04:57:02.508Z,177.40
2023-03-06T04:58:02.523Z,176.78
2023-03-06T04:59:02.591Z,170.83
2023-03-06T05:00:02.623Z,170.36
2023-03-06T05:01:02.739Z,170.32
2023-03-06T05:02:02.762Z,175.46
2023-03-06T05:03:02.776Z,175.94
2023-03-06T05:04:02.840Z,177.52
2023-03-06T05:05:02.901Z,181.34
2023-03-06T05:06:02.934Z,183.90
2023-03-06T05:07:02.981Z,187.34
2023-03-06T05:08:03.061Z,190.13
2023-03-06T05:09:03.110Z,190.79
2023-03-06T05:10:03.150Z,196.69
2023-03-06T05:11:03.186Z,194.88
2023-03-06T05:12:03.222Z,187.18
2023-03-06T05:13:03.285Z,188.94
2023-03-06T05:14:03.359Z,191.86
2023-03-06T05:15:03.379Z,192.28
2023-03-06T05:16:03.550Z,184.23
2023-03-06T05:17:03.462Z,187.70
2023-03-06T05:18:03.502Z,189.89
2023-03-06T05:19:03.527Z,181.49
2023-03-06T05:20:03.608Z,176.72
2023-03-06T05:21:03.662Z,172.31
2023-03-06T05:22:03.751Z,167.73
2023-03-06T05:23:03.768Z,168.41
2023-03-06T05:24:03.809Z,162.69
2023-03-06T05:25:03.870Z,162.69
2023-03-06T05:26:03.944Z,161.02
2023-03-06T05:27:03.987Z,159.85
2023-03-06T05:28:04.001Z,158.13
2023-03-06T05:29:03.994Z,155.81
2023-03-06T05:30:03.991Z,159.22
2023-03-06T05:31:03.991Z,159.39
2023-03-06T05:32:04.058Z,163.01
2023-03-06T05:33:03.969Z,161.05
2023-03-06T05:34:03.981Z,161.63
2023-03-06T05:35:03.989Z,163.23
2023-03-06T05:36:04.004Z,162.37
2023-03-06T05:50:04.038Z,188.15
2023-03-06T05:51:04.107Z,188.57
2023-03-06T05:52:04.193Z,192.10
2023-03-06T06:01:12.141Z,207.14
2023-03-06T06:46:47.189Z,247.61
2023-03-06T09:05:07.886Z,171.92
2023-03-06T09:06:07.873Z,172.34
2023-03-06T09:07:07.958Z,172.62
2023-03-06T09:08:07.910Z,170.44
2023-03-06T09:09:07.931Z,165.18
2023-03-06T09:10:07.989Z,168.31
2023-03-06T09:11:08.008Z,169.54
2023-03-06T09:12:08.047Z,172.03
2023-03-06T09:13:08.131Z,173.33
2023-03-06T09:14:08.134Z,172.10
2023-03-06T09:15:08.138Z,172.00
2023-03-06T09:16:08.145Z,172.50
2023-03-06T09:17:08.198Z,175.63
2023-03-06T09:18:08.260Z,172.29
2023-03-06T09:19:08.234Z,172.55
2023-03-06T09:20:10.434Z,175.39
2023-03-06T09:21:08.241Z,175.67
2023-03-06T09:22:08.311Z,175.64
2023-03-06T09:23:08.727Z,178.18
2023-03-06T09:24:08.257Z,180.35
2023-03-06T09:25:08.324Z,183.50
2023-03-06T09:26:08.269Z,187.64
2023-03-06T09:27:08.270Z,190.87
2023-03-06T09:28:11.575Z,191.50
2023-03-06T09:29:08.269Z,197.25
2023-03-06T09:30:08.276Z,204.35
2023-03-06T09:31:08.303Z,199.29
2023-03-06T09:32:08.414Z,194.21
2023-03-06T09:33:08.759Z,194.47
2023-03-06T09:34:08.219Z,194.04
2023-03-06T09:35:08.236Z,194.28
2023-03-06T09:36:08.250Z,193.37
2023-03-06T09:37:08.193Z,193.87
2023-03-06T09:38:08.321Z,193.64
2023-03-06T09:39:08.202Z,190.78
2023-03-06T09:40:08.224Z,187.42
2023-03-06T09:41:08.774Z,186.74
2023-03-06T09:42:08.233Z,186.07
2023-03-06T10:40:08.860Z,177.55
2023-03-06T10:41:08.891Z,180.46
2023-03-06T10:42:09.099Z,177.08
2023-03-06T10:43:11.778Z,165.51
2023-03-06T10:44:09.128Z,170.13
2023-03-06T10:45:08.992Z,168.79
2023-03-06T10:46:09.050Z,165.54
2023-03-06T10:47:09.038Z,164.97
2023-03-06T10:48:08.998Z,146.71
2023-03-06T10:49:09.251Z,81.38
2023-03-06T10:50:08.953Z,37.17
2023-03-06T10:51:17.752Z,21.71
2023-03-06T10:53:08.954Z,0.00
2023-03-06T10:54:09.289Z,0.00
2023-03-06T10:55:11.157Z,0.00
2023-03-06T10:56:08.934Z,0.00
2023-03-06T10:57:08.945Z,0.00
2023-03-06T10:58:08.917Z,0.00
2023-03-06T10:59:08.967Z,11.74
2023-03-06T11:00:08.912Z,36.05
2023-03-06T11:01:09.800Z,48.02
2023-03-06T11:02:08.923Z,66.45
2023-03-06T11:03:08.881Z,69.00
2023-03-06T11:04:08.916Z,81.35
2023-03-06T11:05:08.908Z,91.72
2023-03-06T11:06:11.430Z,101.52
2023-03-06T11:07:08.860Z,101.66
2023-03-06T11:08:08.870Z,103.28
2023-03-06T11:09:08.825Z,107.21
2023-03-06T11:10:08.862Z,115.08
2023-03-06T11:11:08.836Z,126.55
2023-03-06T11:12:08.817Z,131.21
2023-03-06T11:13:08.790Z,132.39
2023-03-06T11:14:08.828Z,136.58
2023-03-06T11:15:08.804Z,142.27
2023-03-06T11:16:08.933Z,141.80
2023-03-06T11:17:08.783Z,146.37
2023-03-06T11:18:08.877Z,145.07
2023-03-06T11:19:08.831Z,148.62
2023-03-06T11:24:08.832Z,34.00
2023-03-06T11:29:08.914Z,62.73
2023-03-06T11:36:08.989Z,138.54
2023-03-06T11:45:08.784Z,169.98
2023-03-06T11:55:08.776Z,179.49
2023-03-06T12:00:08.791Z,165.96
2023-03-06T12:15:08.811Z,147.93
2023-03-06T12:20:09.308Z,162.60
2023-03-06T12:23:15.307Z,166.41
2023-03-06T12:24:09.857Z,166.48
2023-03-06T12:25:09.322Z,166.98
2023-03-06T12:26:08.830Z,168.31
2023-03-06T12:27:08.846Z,169.55
2023-03-06T12:28:08.820Z,171.42
2023-03-06T12:29:08.788Z,175.38
2023-03-06T12:30:08.790Z,176.64
2023-03-06T12:32:08.949Z,172.61
2023-03-06T12:33:08.852Z,174.56
2023-03-06T12:34:08.915Z,175.87
2023-03-06T12:35:09.277Z,176.16
2023-03-06T12:36:09.015Z,176.48
2023-03-06T12:37:09.044Z,177.12
2023-03-06T12:38:09.087Z,176.14
2023-03-06T12:39:09.132Z,177.56
2023-03-06T12:40:09.106Z,171.23
2023-03-06T12:41:09.118Z,168.84
2023-03-06T12:42:17.800Z,171.90
2023-03-06T12:43:10.133Z,171.97
2023-03-06T12:44:09.092Z,171.60
2023-03-06T12:45:09.107Z,166.84
2023-03-06T12:46:09.108Z,166.74
2023-03-06T12:47:09.079Z,164.15
2023-03-06T12:48:09.061Z,163.87
2023-03-06T12:49:09.126Z,165.93
2023-03-06T12:50:09.053Z,168.31
2023-03-06T12:51:09.049Z,165.88
2023-03-06T12:52:09.808Z,163.77
2023-03-06T12:53:09.067Z,159.67
2023-03-06T12:54:09.022Z,154.68
2023-03-06T12:55:08.998Z,154.57
2023-03-06T12:56:09.034Z,150.20
2023-03-06T12:57:09.010Z,149.06
2023-03-06T12:58:08.996Z,150.98
2023-03-06T12:59:08.998Z,149.02
2023-03-06T13:00:09.008Z,143.77
2023-03-06T13:01:09.020Z,141.91
2023-03-06T13:02:09.033Z,143.64
2023-03-06T13:03:09.066Z,145.83
2023-03-06T13:04:09.099Z,138.23
2023-03-06T13:05:09.116Z,134.27
2023-03-06T13:06:09.147Z,136.34
2023-03-06T13:07:09.195Z,137.50
2023-03-06T13:08:09.203Z,142.60
2023-03-06T13:09:09.230Z,144.11
2023-03-06T13:10:09.290Z,147.98
2023-03-06T13:11:09.337Z,146.44
2023-03-06T13:12:09.321Z,141.54
2023-03-06T13:13:09.366Z,140.81
2023-03-06T13:14:09.412Z,142.02
2023-03-06T13:15:09.458Z,142.38
2023-03-06T13:16:09.484Z,138.28
2023-03-06T13:17:09.533Z,137.79
2023-03-06T13:18:09.530Z,138.75
2023-03-06T13:19:09.579Z,140.17
2023-03-06T13:20:09.621Z,141.04
2023-03-06T13:21:09.671Z,143.88
2023-03-06T13:22:09.689Z,142.37
2023-03-06T13:23:09.717Z,141.21
2023-03-06T13:24:09.740Z,142.88
2023-03-06T13:25:09.789Z,143.78
2023-03-06T13:26:09.805Z,143.46
2023-03-06T13:27:09.827Z,145.57
2023-03-06T13:29:09.924Z,147.83
2023-03-06T13:30:09.930Z,146.69
2023-03-06T13:31:18.324Z,147.18
2023-03-06T13:33:09.950Z,145.18
2023-03-06T13:34:09.944Z,145.21
2023-03-06T13:35:09.978Z,139.85
2023-03-06T13:36:09.962Z,136.17
2023-03-06T13:37:09.953Z,134.54
2023-03-06T13:38:09.915Z,134.53
2023-03-06T13:39:10.020Z,131.23
2023-03-06T13:40:09.977Z,128.39
2023-03-06T13:41:09.904Z,129.03
2023-03-06T13:42:09.897Z,125.83
2023-03-06T13:43:09.923Z,128.22
2023-03-06T13:44:09.903Z,128.20
2023-03-06T13:45:09.852Z,126.75
2023-03-06T13:46:09.916Z,130.51
2023-03-06T13:47:09.929Z,125.04
2023-03-06T13:48:33.725Z,123.23
2023-03-06T13:50:09.956Z,121.40
2023-03-06T13:51:10.000Z,117.57
2023-03-06T13:52:09.934Z,119.23
2023-03-06T13:53:09.940Z,116.82
2023-03-06T13:54:10.040Z,110.57
2023-03-06T13:55:09.960Z,107.67
2023-03-06T13:56:09.928Z,104.64
2023-03-06T13:57:09.893Z,103.70
2023-03-06T13:58:09.886Z,99.59
2023-03-06T13:59:09.916Z,98.57
2023-03-06T14:00:10.245Z,92.99
2023-03-06T14:01:09.987Z,87.29
2023-03-06T14:02:10.048Z,98.89
2023-03-06T14:03:10.040Z,97.08
2023-03-06T14:04:10.119Z,103.27
2023-03-06T14:05:10.186Z,106.30
2023-03-06T14:07:10.237Z,100.87
2023-03-06T14:08:10.310Z,99.74
2023-03-06T14:37:12.026Z,86.59
2023-03-06T14:41:14.063Z,89.12
2023-03-06T14:43:12.296Z,77.64
2023-03-06T14:44:12.349Z,76.28
2023-03-06T14:45:12.392Z,76.42
2023-03-06T14:46:12.515Z,76.58
2023-03-06T14:47:12.509Z,82.09
2023-03-06T14:49:12.611Z,82.73
2023-03-06T14:50:12.665Z,82.73
2023-03-06T14:51:12.725Z,87.17
2023-03-06T14:52:12.806Z,89.41
2023-03-06T14:53:12.813Z,84.77
2023-03-06T14:55:12.927Z,79.68
2023-03-06T15:03:13.417Z,80.96
2023-03-06T15:04:13.503Z,79.62
2023-03-06T15:05:13.558Z,82.54
2023-03-06T15:06:13.623Z,81.54
2023-03-06T15:07:13.671Z,84.95
2023-03-06T15:08:13.705Z,82.68
2023-03-06T15:09:13.791Z,82.71
2023-03-06T15:11:13.904Z,78.31
2023-03-06T15:12:13.971Z,73.34
2023-03-06T15:14:14.053Z,74.43
2023-03-06T15:15:14.131Z,79.05
2023-03-06T15:16:14.244Z,77.71
2023-03-06T15:21:14.532Z,73.09
2023-03-06T15:22:14.593Z,73.38
2023-03-06T15:23:14.675Z,71.17
2023-03-06T15:24:14.726Z,71.26
2023-03-06T15:25:14.742Z,73.43
2023-03-06T15:26:14.818Z,73.68
2023-03-06T15:27:14.879Z,77.07
2023-03-06T15:28:14.963Z,78.12
2023-03-06T15:29:14.991Z,81.02
2023-03-06T15:30:15.059Z,84.92
2023-03-06T15:31:15.236Z,77.17
2023-03-06T15:32:15.300Z,74.57
2023-03-06T15:33:15.262Z,72.50
2023-03-06T15:34:15.315Z,73.14
2023-03-06T15:35:15.357Z,68.16
2023-03-06T15:36:15.422Z,71.77
2023-03-06T15:37:15.518Z,71.89
2023-03-06T15:38:15.516Z,76.83
2023-03-06T15:39:15.658Z,78.66
2023-03-06T15:40:15.646Z,79.07
2023-03-06T15:41:15.731Z,82.42
2023-03-06T15:42:15.799Z,82.87
2023-03-06T15:43:15.853Z,84.27
2023-03-06T15:44:15.934Z,84.52
2023-03-06T15:45:15.994Z,79.62
2023-03-06T15:46:16.033Z,76.16
2023-03-06T15:47:16.050Z,75.25
2023-03-06T15:48:16.105Z,74.95
2023-03-06T15:49:16.163Z,72.10
2023-03-06T15:50:16.166Z,73.29
2023-03-06T15:51:16.274Z,67.32
2023-03-06T15:52:16.245Z,65.11
2023-03-06T15:53:16.246Z,67.31
2023-03-06T15:54:16.293Z,70.51
2023-03-06T15:55:16.323Z,70.74
2023-03-06T15:56:16.352Z,72.26
2023-03-06T15:57:16.316Z,70.39
2023-03-06T15:58:16.364Z,67.92
2023-03-06T15:59:16.375Z,67.41
2023-03-06T16:00:26.835Z,72.38
2023-03-06T16:01:17.486Z,71.27
2023-03-06T16:02:16.399Z,72.66
2023-03-06T16:03:16.358Z,74.32
2023-03-06T16:04:16.392Z,76.05
2023-03-06T16:05:16.375Z,78.31
2023-03-06T16:06:16.327Z,74.30
2023-03-06T16:07:16.359Z,74.50
2023-03-06T16:08:16.356Z,74.53
2023-03-06T16:09:16.301Z,77.62
2023-03-06T16:10:16.322Z,80.09
2023-03-06T16:11:16.326Z,79.03
2023-03-06T16:12:16.353Z,81.87
2023-03-06T16:13:16.310Z,78.77
2023-03-06T16:14:16.284Z,76.77
2023-03-06T16:15:16.278Z,76.36
2023-03-06T16:16:16.331Z,78.16
2023-03-06T16:17:16.278Z,78.25
2023-03-06T16:18:16.231Z,79.28
2023-03-06T16:19:25.201Z,78.57
2023-03-06T16:20:17.243Z,77.88
2023-03-06T16:21:16.211Z,78.62
2023-03-06T16:22:16.228Z,69.86
2023-03-06T16:23:16.238Z,72.15
2023-03-06T16:24:16.186Z,72.78
2023-03-06T16:25:16.194Z,74.32
2023-03-06T16:26:16.207Z,76.35
2023-03-06T16:27:16.214Z,78.82
2023-03-06T16:28:16.173Z,80.98
2023-03-06T16:29:16.192Z,75.82
2023-03-06T16:30:16.177Z,73.67
2023-03-06T16:31:16.171Z,70.03
2023-03-06T16:32:16.239Z,68.29
2023-03-06T16:33:16.117Z,73.39
2023-03-06T16:34:16.165Z,70.98
2023-03-06T16:35:16.194Z,69.91
2023-03-06T16:36:16.123Z,68.76
2023-03-06T16:37:16.093Z,70.66
2023-03-06T16:38:16.096Z,70.97
2023-03-06T16:39:16.100Z,76.18
2023-03-06T16:40:16.097Z,75.21
2023-03-06T16:41:16.113Z,73.88
2023-03-06T16:42:16.063Z,71.21
2023-03-06T16:43:16.153Z,72.58
2023-03-06T16:44:16.041Z,73.70
2023-03-06T16:45:16.055Z,75.89
2023-03-06T16:46:16.054Z,71.19
2023-03-06T16:47:16.033Z,73.14
2023-03-06T16:48:16.019Z,70.05
2023-03-06T16:49:16.017Z,73.04
2023-03-06T16:50:16.062Z,73.96
2023-03-06T16:51:16.035Z,69.74
2023-03-06T16:52:16.005Z,66.39
2023-03-06T16:53:15.980Z,65.98
2023-03-06T16:54:15.985Z,70.69
2023-03-06T16:55:15.966Z,73.55
2023-03-06T16:56:15.972Z,72.13
2023-03-06T16:57:15.945Z,73.20
2023-03-06T16:58:15.971Z,80.66
2023-03-06T16:59:15.951Z,85.03
2023-03-06T17:00:15.928Z,86.72
2023-03-06T17:01:15.944Z,86.83
2023-03-06T17:02:15.948Z,83.49
2023-03-06T17:03:15.898Z,80.10
2023-03-06T17:04:15.933Z,74.30
2023-03-06T17:05:15.905Z,67.00
2023-03-06T17:06:15.861Z,74.77
2023-03-06T17:07:15.871Z,78.21
2023-03-06T17:08:15.900Z,76.41
2023-03-06T17:09:15.864Z,79.27
2023-03-06T17:10:15.831Z,82.94
2023-03-06T17:11:15.850Z,74.66
2023-03-06T17:12:15.843Z,73.50
2023-03-06T17:13:15.841Z,72.88
2023-03-06T17:14:15.838Z,76.50
2023-03-06T17:15:15.838Z,76.95
2023-03-06T17:16:15.919Z,74.88
2023-03-06T17:17:15.881Z,79.36
2023-03-06T17:18:15.865Z,78.82
2023-03-06T17:19:15.917Z,72.08
2023-03-06T17:20:15.917Z,74.58
2023-03-06T17:21:15.953Z,77.78
2023-03-06T17:22:15.952Z,73.59
2023-03-06T17:23:15.978Z,73.24
2023-03-06T17:24:15.945Z,75.89
2023-03-06T17:25:15.999Z,76.89
2023-03-06T17:26:16.000Z,80.34
2023-03-06T17:27:15.995Z,77.35
2023-03-06T17:28:16.030Z,75.73
2023-03-06T17:29:16.023Z,73.48
2023-03-06T17:30:16.044Z,70.32
2023-03-06T17:31:16.147Z,71.87
2023-03-06T17:32:16.158Z,73.20
2023-03-06T17:33:16.107Z,72.16
2023-03-06T17:34:16.135Z,69.22
2023-03-06T17:35:16.145Z,63.57
2023-03-06T17:36:16.187Z,63.56
2023-03-06T17:37:16.279Z,71.72
2023-03-06T17:38:16.175Z,76.30
2023-03-06T17:39:16.270Z,79.26
2023-03-06T17:40:16.264Z,77.05
2023-03-06T17:41:16.263Z,76.68
2023-03-06T17:42:16.273Z,70.83
2023-03-06T17:43:16.315Z,74.82
2023-03-06T17:44:16.284Z,75.53
2023-03-06T17:45:16.372Z,78.37
2023-03-06T17:46:16.377Z,75.37
2023-03-06T17:47:16.338Z,75.60
2023-03-06T17:48:16.376Z,75.98
2023-03-06T17:49:16.397Z,74.03
2023-03-06T17:50:16.400Z,76.69
2023-03-06T17:51:16.439Z,81.58
2023-03-06T17:52:16.457Z,80.85
2023-03-06T17:53:16.427Z,80.45
2023-03-06T17:54:16.435Z,77.03
2023-03-06T17:55:16.463Z,80.53
2023-03-06T18:31:16.974Z,89.98
2023-03-06T18:32:16.939Z,90.98
2023-03-06T18:33:16.944Z,87.51
2023-03-06T18:34:16.984Z,85.40
2023-03-06T18:35:16.981Z,77.77
2023-03-06T18:36:17.012Z,78.17
2023-03-06T18:37:17.029Z,80.61
2023-03-06T18:38:17.026Z,82.13
2023-03-06T18:39:17.062Z,79.42
2023-03-06T18:40:17.039Z,85.39
2023-03-06T18:41:17.094Z,83.91
2023-03-06T18:42:17.134Z,86.61
2023-03-06T18:43:17.131Z,90.53
2023-03-06T18:44:17.152Z,90.83
2023-03-06T18:45:17.148Z,90.23
2023-03-06T18:46:17.184Z,89.57
2023-03-06T18:47:17.155Z,92.60
2023-03-06T18:48:17.164Z,90.32
2023-03-06T18:49:17.217Z,91.67
2023-03-06T18:50:17.205Z,90.25
2023-03-06T18:51:17.222Z,91.14
2023-03-06T18:52:17.233Z,90.77
2023-03-06T18:53:17.237Z,93.56
2023-03-06T18:54:17.243Z,95.34
2023-03-06T18:55:17.511Z,91.09
2023-03-06T18:56:17.258Z,89.91
2023-03-06T18:59:18.880Z,88.87
2023-03-06T19:00:17.309Z,90.95
2023-03-06T19:01:17.415Z,89.47
2023-03-06T19:02:17.360Z,88.04
2023-03-06T19:36:17.817Z,72.73
2023-03-06T19:37:17.821Z,62.33
2023-03-06T19:38:17.819Z,58.26
2023-03-06T19:39:17.854Z,64.47
2023-03-06T19:40:17.887Z,64.16
2023-03-06T19:41:17.901Z,66.03
2023-03-06T19:42:17.948Z,68.55
2023-03-06T19:43:17.927Z,67.62
2023-03-06T19:44:17.939Z,68.73
2023-03-06T19:45:17.976Z,63.25
2023-03-06T19:46:18.123Z,68.48
2023-03-06T19:47:18.002Z,65.79
2023-03-06T19:48:18.009Z,62.93
2023-03-06T19:49:18.133Z,53.48
2023-03-06T19:50:18.069Z,51.48
2023-03-06T19:51:18.094Z,59.29
2023-03-06T19:52:18.101Z,56.68
2023-03-06T19:53:18.131Z,57.73
2023-03-06T19:54:18.132Z,60.34
2023-03-06T19:55:18.137Z,65.32
2023-03-06T19:56:18.162Z,67.94
2023-03-06T19:57:18.174Z,66.15
2023-03-06T19:58:18.206Z,68.57
2023-03-06T19:59:18.220Z,66.99
2023-03-06T20:00:18.227Z,69.61
2023-03-06T20:01:18.326Z,71.86
2023-03-06T20:02:18.285Z,68.28
2023-03-06T20:03:18.304Z,67.65
2023-03-06T20:04:18.372Z,67.45
2023-03-06T20:05:18.367Z,66.50
2023-03-06T20:06:18.357Z,66.67
2023-03-06T20:07:18.369Z,66.99
2023-03-06T20:08:18.361Z,66.23
2023-03-06T20:09:18.397Z,66.96
2023-03-06T20:10:18.410Z,66.39
2023-03-06T20:11:18.456Z,70.38
2023-03-06T20:12:18.469Z,75.55
2023-03-06T20:13:18.486Z,76.72
2023-03-06T20:14:18.466Z,73.27
2023-03-06T20:15:18.506Z,64.84
2023-03-06T20:16:18.509Z,63.31
2023-03-06T20:17:18.541Z,67.64
2023-03-06T20:18:18.550Z,67.82
2023-03-06T20:19:18.576Z,69.45
2023-03-06T20:20:18.605Z,65.41
2023-03-06T20:21:18.624Z,66.33
2023-03-06T20:22:18.614Z,65.35
2023-03-06T20:23:18.603Z,59.64
2023-03-06T20:24:18.660Z,56.11
2023-03-06T20:25:18.651Z,49.31
2023-03-06T20:26:18.690Z,46.14
2023-03-06T20:27:18.701Z,41.03
2023-03-06T20:28:18.707Z,34.85
2023-03-06T20:29:18.709Z,31.55
2023-03-06T20:30:18.713Z,34.76
2023-03-06T20:31:18.776Z,34.49
2023-03-06T20:32:18.791Z,41.49
2023-03-06T20:33:18.803Z,44.71
2023-03-06T20:34:18.826Z,45.67
2023-03-06T20:35:18.870Z,47.23
2023-03-06T20:36:18.878Z,44.00
2023-03-06T20:37:18.883Z,47.42
2023-03-06T20:38:18.938Z,49.24
2023-03-06T20:39:18.950Z,47.40
2023-03-06T20:40:18.976Z,43.49
2023-03-06T20:41:18.996Z,43.36
2023-03-06T20:42:19.045Z,40.40
2023-03-06T20:43:19.073Z,40.96
2023-03-06T20:44:19.092Z,15.89
2023-03-06T20:45:19.124Z,3.60
2023-03-06T20:46:19.181Z,12.96
2023-03-06T20:47:19.143Z,25.00
2023-03-06T20:48:19.193Z,28.58
2023-03-06T20:49:19.228Z,35.53
2023-03-06T20:50:19.252Z,35.00
2023-03-06T20:51:19.343Z,32.97
2023-03-06T20:52:19.305Z,32.37
2023-03-06T20:53:19.350Z,32.00
2023-03-06T20:54:19.420Z,27.81
2023-03-06T20:55:19.427Z,28.85
2023-03-06T20:56:19.478Z,32.57
2023-03-06T20:57:19.535Z,33.89
2023-03-06T20:58:19.552Z,36.05
2023-03-06T20:59:19.567Z,33.22
2023-03-06T21:00:19.645Z,32.53
2023-03-06T21:01:19.686Z,31.37
2023-03-06T21:02:19.697Z,35.06
2023-03-06T21:03:19.770Z,38.34
2023-03-06T21:04:19.771Z,44.42
2023-03-06T21:05:19.810Z,45.34
2023-03-06T21:06:19.875Z,52.42
2023-03-06T21:07:19.958Z,49.48
2023-03-06T21:08:19.983Z,50.35
2023-03-06T21:09:19.972Z,54.06
2023-03-06T21:10:20.042Z,58.82
2023-03-06T21:11:20.091Z,58.37
2023-03-06T21:12:20.084Z,62.15
2023-03-06T21:13:20.161Z,63.48
2023-03-06T21:14:20.178Z,64.15
2023-03-06T21:15:20.197Z,64.15
2023-03-06T21:16:20.280Z,64.22
2023-03-06T21:17:20.265Z,66.16
2023-03-06T21:18:20.312Z,69.30
2023-03-06T21:19:20.346Z,68.96
2023-03-06T21:20:20.371Z,72.16
2023-03-06T21:21:20.415Z,71.64
2023-03-06T21:22:20.456Z,72.47
2023-03-06T21:23:20.469Z,75.36
2023-03-06T21:24:21.392Z,78.69
2023-03-06T21:25:20.600Z,83.06
2023-03-06T21:26:20.626Z,85.55
2023-03-06T21:27:20.604Z,88.55
2023-03-06T21:28:20.675Z,88.65
2023-03-06T21:29:20.696Z,86.35
2023-03-06T21:30:20.724Z,87.08
2023-03-06T21:31:20.883Z,86.56
2023-03-06T21:32:20.854Z,83.58
2023-03-06T21:33:20.865Z,85.31
2023-03-06T21:34:20.905Z,85.93
2023-03-06T21:35:20.924Z,87.90
2023-03-06T21:36:20.933Z,87.00
2023-03-06T21:37:20.982Z,88.74
2023-03-06T21:38:21.028Z,91.16
2023-03-06T21:39:21.034Z,91.67
2023-03-06T21:40:21.070Z,93.23
2023-03-06T21:41:21.163Z,95.51